Time;durP1;ratioP1;P1;durP2;ratioP2;P2;SDS_P1;SDS_P2;PMS_P1;PMS_P2;Temp;Humidity;BMP_temperature;BMP_pressure;BME280_temperature;BME280_humidity;BME280_pressure;Samples;Min_cycle;Max_cycle;Signal;HPM_P1;HPM_P2
2022/09/25 00:01:09;;;;;;;14.97;12.00;;;12.20;99.90;;;;;;5031396;28;20438;-75
2022/09/25 00:03:34;;;;;;;19.10;13.20;;;12.20;99.90;;;;;;5031884;28;20176;-74
2022/09/25 00:06:06;;;;;;;16.13;11.90;;;12.20;99.90;;;;;;5031020;28;20483;-75
2022/09/25 00:08:32;;;;;;;15.50;12.83;;;12.10;99.90;;;;;;5031930;28;20166;-73
2022/09/25 00:10:58;;;;;;;16.97;12.13;;;12.20;99.90;;;;;;5031792;28;20936;-74
2022/09/25 00:13:24;;;;;;;16.63;12.33;;;12.10;99.90;;;;;;5031864;28;20456;-73
2022/09/25 00:15:52;;;;;;;16.10;12.90;;;12.10;99.90;;;;;;5032559;28;20178;-74
2022/09/25 00:19:48;;;;;;;19.53;13.37;;;12.10;99.90;;;;;;5031745;28;20177;-73
2022/09/25 00:21:11;;;;;;;24.13;14.20;;;12.10;99.90;;;;;;5031387;28;20494;-74
2022/09/25 00:23:37;;;;;;;16.33;13.10;;;12.00;99.90;;;;;;5031710;28;20404;-73
2022/09/25 00:26:04;;;;;;;16.73;13.40;;;12.00;99.90;;;;;;5031571;28;20804;-73
2022/09/25 00:28:30;;;;;;;19.30;13.63;;;12.00;99.90;;;;;;5031499;28;20910;-73
2022/09/25 00:30:56;;;;;;;17.97;13.93;;;12.00;99.90;;;;;;5030966;28;20527;-73
2022/09/25 00:33:23;;;;;;;22.23;12.83;;;12.00;99.90;;;;;;5031369;28;20965;-74
2022/09/25 00:35:48;;;;;;;21.20;13.37;;;12.00;99.90;;;;;;5031378;28;20248;-73
2022/09/25 00:38:14;;;;;;;16.70;13.33;;;12.00;99.90;;;;;;5031478;28;20420;-74
2022/09/25 00:40:39;;;;;;;17.83;12.97;;;11.90;99.90;;;;;;5031257;28;20669;-72
2022/09/25 00:43:14;;;;;;;15.87;12.53;;;11.90;99.90;;;;;;5031467;28;20178;-74
2022/09/25 00:45:41;;;;;;;17.50;13.30;;;11.90;99.90;;;;;;5031348;28;20252;-74
2022/09/25 00:48:13;;;;;;;19.10;13.10;;;11.90;99.90;;;;;;5031130;28;20406;-74
2022/09/25 00:50:48;;;;;;;16.13;12.47;;;11.80;99.90;;;;;;5031127;28;20917;-73
2022/09/25 00:53:23;;;;;;;13.40;12.00;;;11.80;99.90;;;;;;5031687;28;20416;-74
2022/09/25 00:55:49;;;;;;;17.90;12.43;;;11.80;99.90;;;;;;5030201;28;20460;-73
2022/09/25 00:58:21;;;;;;;16.30;12.20;;;11.80;99.90;;;;;;5031333;28;20416;-75
2022/09/25 02:31:35;;;;;;;16.40;12.30;;;12.10;99.90;;;;;;5760465;22;21201;-71
2022/09/25 02:34:02;;;;;;;17.13;12.10;;;12.10;99.90;;;;;;5063182;28;20747;-74
2022/09/25 02:36:28;;;;;;;16.23;11.33;;;12.10;99.90;;;;;;5072839;28;21127;-73
2022/09/25 02:38:55;;;;;;;16.20;11.13;;;12.10;99.90;;;;;;5073128;28;20506;-74
2022/09/25 02:41:51;;;;;;;16.10;12.90;;;12.10;99.90;;;;;;5072901;28;20629;-74
2022/09/25 02:44:16;;;;;;;15.83;11.97;;;12.10;99.90;;;;;;5072927;28;20939;-73
2022/09/25 02:46:59;;;;;;;22.57;11.93;;;12.10;99.90;;;;;;5073178;28;20414;-74
2022/09/25 02:50:20;;;;;;;18.87;13.00;;;12.10;99.90;;;;;;5072701;28;20503;-73
2022/09/25 02:52:50;;;;;;;14.60;11.77;;;12.10;99.90;;;;;;5030506;28;20526;-73
2022/09/25 02:55:23;;;;;;;14.83;10.67;;;12.10;99.90;;;;;;5065079;28;20498;-74
2022/09/25 02:57:57;;;;;;;14.40;10.77;;;12.10;99.90;;;;;;5072627;28;20456;-74
2022/09/25 03:00:23;;;;;;;15.73;11.80;;;12.10;99.90;;;;;;5072285;28;20426;-73
2022/09/25 03:02:55;;;;;;;17.97;11.87;;;12.10;99.90;;;;;;5072687;28;20435;-73
2022/09/25 03:05:22;;;;;;;18.37;12.97;;;12.10;99.90;;;;;;5072161;28;20545;-73
2022/09/25 03:10:34;;;;;;;18.70;12.77;;;12.10;99.90;;;;;;5072198;28;20418;-73
2022/09/25 03:13:22;;;;;;;18.17;12.67;;;12.10;99.90;;;;;;5072299;28;20419;-73
2022/09/25 03:15:53;;;;;;;18.63;13.07;;;12.10;99.90;;;;;;5070907;28;20419;-73
2022/09/25 03:18:18;;;;;;;18.50;13.00;;;12.20;99.90;;;;;;5071986;28;20425;-73
2022/09/25 03:20:44;;;;;;;20.47;13.77;;;12.20;99.90;;;;;;5071877;28;20829;-73
2022/09/25 03:23:10;;;;;;;18.87;12.63;;;12.10;99.90;;;;;;5072003;28;20178;-72
2022/09/25 03:25:37;;;;;;;16.60;13.03;;;12.10;99.90;;;;;;5072070;28;20922;-73
2022/09/25 03:28:03;;;;;;;18.07;13.50;;;12.20;99.90;;;;;;5072201;28;20172;-74
2022/09/25 03:30:29;;;;;;;16.10;13.03;;;12.20;99.90;;;;;;5071776;28;20439;-73
2022/09/25 03:32:54;;;;;;;15.57;12.60;;;12.20;99.90;;;;;;5071706;28;20485;-73
2022/09/25 03:35:20;;;;;;;14.90;11.80;;;12.20;99.90;;;;;;5071904;28;20337;-73
2022/09/25 03:37:45;;;;;;;20.03;12.03;;;12.20;99.90;;;;;;5071927;28;20204;-73
2022/09/25 03:40:11;;;;;;;14.93;12.03;;;12.20;99.90;;;;;;5071389;28;20173;-73
2022/09/25 03:42:37;;;;;;;16.30;12.43;;;12.20;99.90;;;;;;5071822;28;20677;-74
2022/09/25 03:45:05;;;;;;;18.80;13.13;;;12.20;99.90;;;;;;5071828;28;20233;-73
2022/09/25 03:47:30;;;;;;;18.70;12.83;;;12.20;99.90;;;;;;5072178;28;20406;-73
2022/09/25 03:49:56;;;;;;;17.03;13.53;;;12.20;99.90;;;;;;5071892;28;20417;-73
2022/09/25 03:52:21;;;;;;;17.77;12.17;;;12.20;99.90;;;;;;5071651;28;20724;-73
2022/09/25 03:54:46;;;;;;;19.00;13.13;;;12.20;99.90;;;;;;5071907;28;20184;-73
2022/09/25 03:57:13;;;;;;;15.10;11.87;;;12.20;99.90;;;;;;5071885;28;20568;-73
2022/09/25 03:59:39;;;;;;;20.33;12.53;;;12.20;99.90;;;;;;5072069;28;20630;-73
2022/09/25 04:02:04;;;;;;;15.60;12.83;;;12.20;99.90;;;;;;5071915;28;20517;-73
2022/09/25 04:04:31;;;;;;;14.57;11.80;;;12.30;99.90;;;;;;5071808;28;20184;-73
2022/09/25 04:06:56;;;;;;;15.17;12.17;;;12.30;99.90;;;;;;5071929;28;20528;-73
2022/09/25 04:09:22;;;;;;;16.03;12.70;;;12.30;99.90;;;;;;5071799;28;20403;-73
2022/09/25 04:11:47;;;;;;;19.90;13.10;;;12.30;99.90;;;;;;5071642;28;20675;-73
2022/09/25 04:14:13;;;;;;;17.33;12.70;;;12.30;99.90;;;;;;5071753;28;20182;-72
2022/09/25 04:16:39;;;;;;;21.90;13.07;;;12.30;99.90;;;;;;5071708;28;20211;-73
2022/09/25 04:19:05;;;;;;;18.20;13.27;;;12.20;99.90;;;;;;5071830;28;20435;-73
2022/09/25 04:21:31;;;;;;;16.70;12.37;;;12.30;99.90;;;;;;5071408;28;20192;-74
2022/09/25 04:26:41;;;;;;;17.17;12.97;;;12.20;99.90;;;;;;5071961;28;20454;-73
2022/09/25 04:29:07;;;;;;;23.93;11.97;;;12.20;99.90;;;;;;5071896;28;20450;-73
2022/09/25 04:31:33;;;;;;;21.13;14.27;;;12.20;99.90;;;;;;5070024;28;20648;-73
2022/09/25 04:33:59;;;;;;;17.77;14.03;;;12.30;99.90;;;;;;5071845;28;20506;-73
2022/09/25 04:36:25;;;;;;;19.87;12.93;;;12.20;99.90;;;;;;5071522;28;20299;-73
2022/09/25 04:38:50;;;;;;;21.37;13.00;;;12.20;99.90;;;;;;5071864;28;20517;-74
2022/09/25 04:41:18;;;;;;;17.70;13.00;;;12.20;99.90;;;;;;5071649;28;20608;-73
2022/09/25 04:43:44;;;;;;;16.47;12.20;;;12.20;99.90;;;;;;5072294;28;20260;-73
2022/09/25 04:46:11;;;;;;;16.30;13.23;;;12.20;99.90;;;;;;5071782;28;20456;-73
2022/09/25 04:48:37;;;;;;;17.13;13.50;;;12.20;99.90;;;;;;5071468;28;20177;-74
2022/09/25 04:51:03;;;;;;;16.10;12.93;;;12.20;99.90;;;;;;5071317;28;20846;-73
2022/09/25 04:53:30;;;;;;;20.30;13.00;;;12.20;99.90;;;;;;5075086;28;20188;-74
2022/09/25 04:56:00;;;;;;;16.70;12.23;;;12.20;99.90;;;;;;5075280;28;20797;-73
2022/09/25 04:58:26;;;;;;;16.13;12.10;;;12.20;99.90;;;;;;5075024;28;20426;-73
2022/09/25 05:00:52;;;;;;;15.93;12.50;;;12.20;99.90;;;;;;5075061;28;20783;-72
2022/09/25 05:03:17;;;;;;;16.27;12.93;;;12.20;99.90;;;;;;5075018;28;20212;-73
2022/09/25 05:05:43;;;;;;;18.03;12.30;;;12.20;99.90;;;;;;5075472;28;20169;-73
2022/09/25 05:08:09;;;;;;;16.13;11.80;;;12.20;99.90;;;;;;5075120;28;20211;-73
2022/09/25 05:10:35;;;;;;;16.77;13.43;;;12.20;99.90;;;;;;5074801;28;20524;-73
2022/09/25 05:13:02;;;;;;;17.30;13.33;;;12.20;99.90;;;;;;5075085;28;20264;-74
2022/09/25 05:15:30;;;;;;;20.60;15.63;;;12.20;99.90;;;;;;5075175;28;20840;-72
2022/09/25 05:18:00;;;;;;;18.23;14.23;;;12.20;99.90;;;;;;5075016;28;20504;-73
2022/09/25 05:20:25;;;;;;;18.03;13.70;;;12.10;99.90;;;;;;5074867;28;20415;-73
2022/09/25 05:22:58;;;;;;;20.63;13.20;;;12.10;99.90;;;;;;5074609;28;20929;-74
2022/09/25 05:25:26;;;;;;;16.33;13.30;;;12.10;99.90;;;;;;5074639;28;20181;-74
2022/09/25 05:27:56;;;;;;;17.90;13.80;;;12.20;99.90;;;;;;5074830;28;20501;-73
2022/09/25 05:30:22;;;;;;;19.17;13.90;;;12.20;99.90;;;;;;5074743;28;20414;-73
2022/09/25 05:32:49;;;;;;;20.80;13.00;;;12.10;99.90;;;;;;5074573;28;20584;-73
2022/09/25 05:35:17;;;;;;;17.80;12.70;;;12.10;99.90;;;;;;5074486;28;20226;-73
2022/09/25 05:37:42;;;;;;;19.03;13.60;;;12.10;99.90;;;;;;5074558;28;20462;-73
2022/09/25 05:40:08;;;;;;;16.43;12.70;;;12.20;99.90;;;;;;5074252;28;20790;-73
2022/09/25 05:42:34;;;;;;;18.27;13.60;;;12.10;99.90;;;;;;5074312;28;20192;-73
2022/09/25 05:44:59;;;;;;;17.87;13.40;;;12.10;99.90;;;;;;5074286;28;20456;-73
2022/09/25 05:47:25;;;;;;;17.53;13.77;;;12.20;99.90;;;;;;5074263;28;20542;-71
2022/09/25 05:49:50;;;;;;;19.07;14.07;;;12.20;99.90;;;;;;5074278;28;20189;-72
2022/09/25 05:52:16;;;;;;;21.87;14.00;;;12.20;99.90;;;;;;5073941;28;20210;-72
2022/09/25 05:54:41;;;;;;;18.30;14.30;;;12.20;99.90;;;;;;5074238;28;20624;-72
2022/09/25 05:57:06;;;;;;;16.03;13.50;;;12.20;99.90;;;;;;5073775;28;20302;-73
2022/09/25 05:59:33;;;;;;;16.63;12.67;;;12.30;99.90;;;;;;5073499;28;20172;-73
2022/09/25 06:01:58;;;;;;;21.67;12.63;;;12.30;99.90;;;;;;5073516;28;20189;-72
2022/09/25 06:04:24;;;;;;;14.00;11.77;;;12.30;99.90;;;;;;5073763;28;20462;-73
2022/09/25 06:06:49;;;;;;;22.53;13.63;;;12.40;99.90;;;;;;5073571;28;20606;-73
2022/09/25 06:09:15;;;;;;;16.30;12.70;;;12.40;99.90;;;;;;5073400;28;20260;-73
2022/09/25 06:11:46;;;;;;;17.27;12.47;;;12.40;99.90;;;;;;5073041;28;20252;-74
2022/09/25 06:14:12;;;;;;;16.93;12.10;;;12.50;99.90;;;;;;5073388;28;20172;-73
2022/09/25 06:16:38;;;;;;;20.70;13.70;;;12.50;99.90;;;;;;5073168;28;20507;-74
2022/09/25 06:19:04;;;;;;;17.60;14.00;;;12.60;99.90;;;;;;5073499;28;20949;-73
2022/09/25 06:21:29;;;;;;;17.27;12.80;;;12.60;99.90;;;;;;5072884;28;20189;-73
2022/09/25 06:23:55;;;;;;;15.50;13.20;;;12.70;99.90;;;;;;5073311;28;20176;-73
2022/09/25 06:26:20;;;;;;;17.37;13.63;;;12.70;99.90;;;;;;5072987;28;20228;-73
2022/09/25 06:28:46;;;;;;;18.40;14.10;;;12.80;99.90;;;;;;5073331;28;20184;-73
2022/09/25 06:31:11;;;;;;;18.73;13.70;;;12.80;99.90;;;;;;5072622;28;20676;-73
2022/09/25 06:33:37;;;;;;;19.57;14.10;;;12.80;99.90;;;;;;5073286;28;20168;-73
2022/09/25 06:36:04;;;;;;;16.10;13.17;;;12.80;99.90;;;;;;5072973;28;20169;-73
2022/09/25 06:38:32;;;;;;;19.83;14.10;;;12.90;99.90;;;;;;5073223;28;20411;-73
2022/09/25 06:40:58;;;;;;;17.53;13.60;;;12.90;99.90;;;;;;5072763;28;20430;-74
2022/09/25 06:43:23;;;;;;;20.50;13.70;;;12.90;99.90;;;;;;5072641;28;20995;-73
2022/09/25 06:45:50;;;;;;;19.93;13.67;;;12.90;99.90;;;;;;5072862;28;20173;-73
2022/09/25 06:48:15;;;;;;;25.17;14.33;;;12.90;99.90;;;;;;5072537;28;20173;-73
2022/09/25 06:50:52;;;;;;;17.87;15.27;;;13.00;99.90;;;;;;5072557;28;20423;-73
2022/09/25 06:53:19;;;;;;;17.77;14.23;;;13.00;99.90;;;;;;5072455;28;20476;-73
2022/09/25 06:55:46;;;;;;;15.10;13.37;;;13.00;99.90;;;;;;5072790;28;20472;-73
2022/09/25 06:58:14;;;;;;;15.80;12.90;;;13.00;99.90;;;;;;5072243;28;20825;-73
2022/09/25 07:00:44;;;;;;;15.93;12.53;;;13.10;99.90;;;;;;5072463;28;20494;-73
2022/09/25 07:05:53;;;;;;;14.73;12.47;;;13.10;99.90;;;;;;5073264;28;20616;-73
2022/09/25 07:08:19;;;;;;;18.90;12.90;;;13.20;99.90;;;;;;5072700;28;20411;-73
2022/09/25 07:10:49;;;;;;;18.10;13.30;;;13.20;99.90;;;;;;5071384;28;20637;-72
2022/09/25 07:13:16;;;;;;;16.73;12.10;;;13.20;99.90;;;;;;5072383;28;20410;-73
2022/09/25 07:15:42;;;;;;;17.63;12.93;;;13.30;99.90;;;;;;5072174;28;20411;-73
2022/09/25 07:18:07;;;;;;;19.53;12.80;;;13.30;99.90;;;;;;5072356;28;20970;-73
2022/09/25 07:20:33;;;;;;;17.10;12.20;;;13.30;99.90;;;;;;5072176;28;20417;-73
2022/09/25 07:23:02;;;;;;;15.00;12.20;;;13.30;99.90;;;;;;5072374;28;20168;-74
2022/09/25 07:25:30;;;;;;;12.70;10.73;;;13.40;99.90;;;;;;5072207;28;20169;-73
2022/09/25 07:27:56;;;;;;;16.30;12.37;;;13.40;99.90;;;;;;5072413;28;20415;-73
2022/09/25 07:30:22;;;;;;;12.80;10.70;;;13.40;99.90;;;;;;5072021;28;20429;-73
2022/09/25 07:32:47;;;;;;;18.77;10.60;;;13.50;99.90;;;;;;5072035;28;20216;-74
2022/09/25 07:35:12;;;;;;;13.20;10.00;;;13.50;99.90;;;;;;5072233;28;20172;-73
2022/09/25 07:37:38;;;;;;;13.53;10.30;;;13.60;99.90;;;;;;5072184;28;20211;-74
2022/09/25 07:40:04;;;;;;;10.83;9.73;;;13.60;99.90;;;;;;5072457;28;20698;-73
2022/09/25 07:42:30;;;;;;;14.23;9.53;;;13.70;99.90;;;;;;5071863;28;20215;-73
2022/09/25 07:44:55;;;;;;;11.30;9.40;;;13.80;99.90;;;;;;5072093;28;20407;-73
2022/09/25 07:47:21;;;;;;;10.80;8.57;;;13.80;99.90;;;;;;5072414;28;20180;-74
2022/09/25 07:49:46;;;;;;;12.80;9.97;;;13.90;99.90;;;;;;5072318;28;20668;-73
2022/09/25 07:52:12;;;;;;;12.60;9.60;;;13.90;99.90;;;;;;5072129;28;20200;-73
2022/09/25 07:54:38;;;;;;;10.03;9.03;;;14.00;99.90;;;;;;5072139;28;20173;-74
2022/09/25 07:57:03;;;;;;;11.43;9.50;;;14.00;99.90;;;;;;5071730;28;20539;-73
2022/09/25 07:59:29;;;;;;;12.87;10.20;;;14.10;99.90;;;;;;5071672;28;20173;-74
2022/09/25 08:01:54;;;;;;;10.80;9.67;;;14.00;99.90;;;;;;5071367;28;20188;-73
2022/09/25 08:04:20;;;;;;;14.10;10.67;;;14.10;99.90;;;;;;5071646;28;20252;-74
2022/09/25 08:06:45;;;;;;;13.57;11.03;;;14.10;99.90;;;;;;5070345;28;20547;-73
2022/09/25 08:09:11;;;;;;;11.53;9.10;;;14.20;99.90;;;;;;5071726;28;20211;-73
2022/09/25 08:11:37;;;;;;;11.97;10.33;;;14.20;99.90;;;;;;5071308;28;20212;-73
2022/09/25 08:14:02;;;;;;;18.13;8.90;;;14.20;99.90;;;;;;5071704;28;20184;-74
2022/09/25 08:16:28;;;;;;;12.67;10.00;;;14.30;99.90;;;;;;5071459;28;20454;-73
2022/09/25 08:18:53;;;;;;;16.63;10.90;;;14.20;99.90;;;;;;5071603;28;20183;-73
2022/09/25 08:21:19;;;;;;;14.67;9.80;;;14.20;99.90;;;;;;5071035;28;20564;-73
2022/09/25 08:23:52;;;;;;;11.50;9.80;;;14.20;99.90;;;;;;5071614;28;20514;-74
2022/09/25 08:26:20;;;;;;;10.87;9.60;;;14.20;99.90;;;;;;5071553;28;20180;-73
2022/09/25 08:28:45;;;;;;;10.87;9.77;;;14.10;99.90;;;;;;5075661;28;20416;-73
2022/09/25 08:31:13;;;;;;;13.80;11.17;;;14.10;99.90;;;;;;5075155;28;20442;-73
2022/09/25 08:33:39;;;;;;;12.30;9.63;;;14.10;99.90;;;;;;5075858;28;20721;-74
2022/09/25 08:36:05;;;;;;;13.07;11.40;;;14.10;99.90;;;;;;5075537;28;20415;-73
2022/09/25 08:38:34;;;;;;;11.20;9.60;;;14.20;99.90;;;;;;5075167;28;20463;-74
2022/09/25 08:41:04;;;;;;;13.83;10.10;;;14.10;99.90;;;;;;5075125;28;20572;-73
2022/09/25 08:43:34;;;;;;;10.73;9.63;;;14.10;99.90;;;;;;5075142;28;20407;-73
2022/09/25 08:49:09;;;;;;;10.57;9.47;;;14.20;99.90;;;;;;5075414;28;20414;-73
2022/09/25 08:51:45;;;;;;;10.50;7.90;;;14.30;99.90;;;;;;5073670;28;20518;-74
2022/09/25 08:54:17;;;;;;;11.30;9.13;;;14.40;99.90;;;;;;5075063;28;20406;-73
2022/09/25 08:56:44;;;;;;;10.33;9.33;;;14.40;99.90;;;;;;5075226;28;20451;-73
2022/09/25 08:59:25;;;;;;;10.70;9.53;;;14.70;99.90;;;;;;5074851;28;20498;-74
2022/09/25 09:01:54;;;;;;;10.87;9.10;;;14.90;99.90;;;;;;5074701;28;20934;-74
2022/09/25 09:04:33;;;;;;;11.63;10.43;;;15.10;99.90;;;;;;5074815;28;20410;-74
2022/09/25 09:07:14;;;;;;;10.30;9.30;;;15.30;99.90;;;;;;5074911;28;20776;-74
2022/09/25 09:09:54;;;;;;;11.37;9.77;;;15.50;99.90;;;;;;5074742;28;20937;-71
2022/09/25 09:12:28;;;;;;;11.00;9.40;;;15.70;99.90;;;;;;5074514;28;20534;-73
2022/09/25 09:15:05;;;;;;;11.27;9.10;;;15.60;99.90;;;;;;5075018;28;20407;-74
2022/09/25 09:17:39;;;;;;;9.70;8.70;;;15.80;99.90;;;;;;5074799;28;20445;-73
2022/09/25 09:20:22;;;;;;;10.03;8.50;;;15.90;99.90;;;;;;5074538;28;20975;-72
2022/09/25 09:22:51;;;;;;;10.90;9.03;;;16.10;99.90;;;;;;5074472;28;20418;-74
2022/09/25 09:25:49;;;;;;;9.67;8.67;;;16.00;99.90;;;;;;5074260;28;20929;-73
2022/09/25 09:28:30;;;;;;;9.63;8.67;;;16.20;99.90;;;;;;5074428;28;20891;-74
2022/09/25 09:31:07;;;;;;;10.77;7.80;;;16.20;99.90;;;;;;5072813;28;20430;-73
2022/09/25 09:33:53;;;;;;;10.00;8.57;;;16.20;99.90;;;;;;5074289;28;20468;-73
2022/09/25 09:36:33;;;;;;;8.87;8.07;;;16.10;99.90;;;;;;5074295;28;20418;-74
2022/09/25 09:39:18;;;;;;;9.73;8.73;;;16.00;99.90;;;;;;5072326;28;20496;-71
2022/09/25 09:42:00;;;;;;;10.10;9.10;;;16.00;99.90;;;;;;5074134;28;20426;-74
2022/09/25 09:44:41;;;;;;;11.47;7.87;;;15.80;99.90;;;;;;5074321;28;20421;-74
2022/09/25 09:47:28;;;;;;;10.00;8.60;;;15.80;99.90;;;;;;5074322;28;20422;-74
2022/09/25 09:50:26;;;;;;;10.80;9.80;;;15.80;99.90;;;;;;5074047;28;20411;-73
2022/09/25 09:53:04;;;;;;;13.67;8.70;;;15.70;99.90;;;;;;5073482;28;20435;-73
2022/09/25 09:55:41;;;;;;;19.37;10.00;;;15.60;99.90;;;;;;5073617;28;20414;-73
2022/09/25 09:58:29;;;;;;;9.23;8.33;;;15.50;99.90;;;;;;5073616;28;20454;-71
2022/09/25 10:00:55;;;;;;;8.93;8.03;;;15.50;99.90;;;;;;5073534;28;20812;-73
2022/09/25 10:03:28;;;;;;;10.13;9.03;;;15.30;99.90;;;;;;5073606;28;20418;-73
2022/09/25 10:06:08;;;;;;;10.27;8.60;;;15.40;99.90;;;;;;5073609;28;20915;-73
2022/09/25 10:08:34;;;;;;;12.80;9.10;;;15.40;99.90;;;;;;5073536;28;20409;-73
2022/09/25 10:11:05;;;;;;;11.90;9.57;;;15.40;99.90;;;;;;5073117;28;20423;-74
2022/09/25 10:13:35;;;;;;;11.33;9.23;;;15.60;99.90;;;;;;5073482;28;20468;-73
2022/09/25 10:16:04;;;;;;;15.57;9.90;;;15.70;99.90;;;;;;5073339;28;20407;-73
2022/09/25 10:18:39;;;;;;;12.80;10.00;;;16.00;99.90;;;;;;5073229;28;20437;-73
2022/09/25 10:21:17;;;;;;;13.90;10.40;;;16.10;99.90;;;;;;5072933;28;20461;-74
2022/09/25 10:23:45;;;;;;;17.60;10.10;;;16.20;99.90;;;;;;5073375;28;20918;-73
2022/09/25 10:26:37;;;;;;;11.03;9.90;;;16.30;99.90;;;;;;5073133;28;20423;-73
2022/09/25 10:29:08;;;;;;;11.90;10.30;;;16.50;99.90;;;;;;5073141;28;20429;-73
2022/09/25 10:31:39;;;;;;;11.17;9.97;;;16.40;99.90;;;;;;5072580;28;20454;-73
2022/09/25 10:34:26;;;;;;;11.90;9.93;;;16.30;99.90;;;;;;5073060;28;20480;-74
2022/09/25 10:36:53;;;;;;;13.60;10.30;;;16.20;99.90;;;;;;5073083;28;20461;-73
2022/09/25 10:39:39;;;;;;;14.43;10.80;;;15.90;99.90;;;;;;5072834;28;20410;-73
2022/09/25 10:42:26;;;;;;;13.63;9.83;;;15.70;99.90;;;;;;5072415;28;20864;-73
2022/09/25 10:44:55;;;;;;;12.73;11.00;;;15.60;99.90;;;;;;5072798;28;20842;-73
2022/09/25 10:50:25;;;;;;;15.80;11.87;;;15.30;99.90;;;;;;5071798;28;20452;-73
2022/09/25 10:52:57;;;;;;;18.93;13.97;;;15.20;99.90;;;;;;5072596;28;20435;-73
2022/09/25 10:55:27;;;;;;;16.83;14.07;;;15.00;99.90;;;;;;5072610;28;20447;-74
2022/09/25 10:58:10;;;;;;;22.10;14.53;;;15.00;99.90;;;;;;5072524;28;20834;-73
2022/09/25 11:00:40;;;;;;;20.10;14.50;;;14.80;99.90;;;;;;5072397;28;20419;-73
2022/09/25 11:03:13;;;;;;;20.33;16.20;;;14.70;99.90;;;;;;5072505;28;20806;-73
2022/09/25 11:05:52;;;;;;;22.77;16.63;;;14.70;99.90;;;;;;5072530;28;20907;-73
2022/09/25 11:08:20;;;;;;;19.57;17.43;;;14.50;99.90;;;;;;5072136;28;20461;-73
2022/09/25 11:10:52;;;;;;;23.57;18.03;;;14.50;99.90;;;;;;5072093;28;20450;-73
2022/09/25 11:13:29;;;;;;;23.70;17.53;;;14.40;99.90;;;;;;5071991;28;20419;-74
2022/09/25 11:16:00;;;;;;;23.63;16.87;;;14.50;99.90;;;;;;5072276;28;20413;-73
2022/09/25 11:18:56;;;;;;;30.07;17.63;;;14.50;99.90;;;;;;5071896;28;20473;-73
2022/09/25 11:21:39;;;;;;;22.83;18.17;;;14.60;99.90;;;;;;5071698;28;20488;-73
2022/09/25 11:24:22;;;;;;;22.57;16.07;;;14.50;99.90;;;;;;5071999;28;20510;-73
2022/09/25 11:27:18;;;;;;;24.67;17.80;;;14.60;99.90;;;;;;5072096;28;20417;-73
2022/09/25 11:29:49;;;;;;;22.77;17.47;;;14.60;99.90;;;;;;5066075;28;20427;-73
2022/09/25 11:32:28;;;;;;;23.23;16.13;;;14.60;99.90;;;;;;5071478;28;20443;-73
2022/09/25 11:35:16;;;;;;;21.37;17.03;;;14.60;99.90;;;;;;5072255;28;20419;-73
2022/09/25 11:38:11;;;;;;;21.60;17.23;;;14.60;99.90;;;;;;5072772;28;20500;-73
2022/09/25 11:41:13;;;;;;;23.07;16.30;;;14.70;99.90;;;;;;5071478;28;20519;-72
2022/09/25 11:44:12;;;;;;;20.53;15.97;;;14.80;99.90;;;;;;5072099;28;20895;-73
2022/09/25 11:46:49;;;;;;;20.27;15.77;;;15.00;99.90;;;;;;5071998;28;20438;-73
2022/09/25 11:49:25;;;;;;;22.13;15.27;;;15.20;99.90;;;;;;5071694;28;20508;-74
2022/09/25 11:52:04;;;;;;;26.23;15.17;;;15.40;99.90;;;;;;5071654;28;20460;-73
2022/09/25 11:55:01;;;;;;;19.33;14.77;;;15.50;99.90;;;;;;5071753;28;20415;-73
2022/09/25 11:57:32;;;;;;;28.03;15.10;;;15.60;99.90;;;;;;5071746;28;20477;-74
2022/09/25 12:00:09;;;;;;;16.73;13.93;;;15.80;99.90;;;;;;5071645;28;20407;-72
2022/09/25 12:02:41;;;;;;;25.60;16.27;;;15.90;99.90;;;;;;5071642;28;20484;-74
2022/09/25 12:05:40;;;;;;;18.47;14.63;;;16.10;99.90;;;;;;5071727;28;20408;-74
2022/09/25 12:08:16;;;;;;;18.50;14.03;;;16.00;99.90;;;;;;5072000;28;20471;-73
2022/09/25 12:11:01;;;;;;;17.77;14.87;;;16.20;99.90;;;;;;5071490;28;20921;-73
2022/09/25 12:13:43;;;;;;;18.13;14.90;;;16.30;99.90;;;;;;5071662;28;20409;-72
2022/09/25 12:16:23;;;;;;;18.70;13.87;;;16.50;99.90;;;;;;5071619;28;20428;-74
2022/09/25 12:19:22;;;;;;;24.40;14.67;;;16.70;99.90;;;;;;5071889;28;20789;-74
2022/09/25 12:22:07;;;;;;;14.83;13.13;;;17.00;99.90;;;;;;5071397;28;20431;-74
2022/09/25 12:24:55;;;;;;;13.60;12.20;;;17.20;99.90;;;;;;5071809;28;20423;-74
2022/09/25 12:27:44;;;;;;;15.93;12.60;;;17.60;99.90;;;;;;5071896;28;20907;-74
2022/09/25 12:30:20;;;;;;;15.90;13.40;;;17.80;99.90;;;;;;5071885;28;20407;-74
2022/09/25 12:33:07;;;;;;;15.10;12.37;;;17.80;99.90;;;;;;5072857;28;20823;-74
2022/09/25 12:35:48;;;;;;;15.20;12.50;;;17.90;99.90;;;;;;5071633;28;20426;-74
2022/09/25 12:38:31;;;;;;;14.93;12.47;;;17.70;99.90;;;;;;5071340;28;20462;-74
2022/09/25 12:41:21;;;;;;;19.33;14.00;;;17.60;99.90;;;;;;5071906;28;20430;-73
2022/09/25 12:44:02;;;;;;;16.57;13.40;;;17.20;99.90;;;;;;5071726;28;20501;-74
2022/09/25 12:46:42;;;;;;;16.77;14.80;;;17.10;99.90;;;;;;5071267;28;20415;-73
2022/09/25 12:49:37;;;;;;;14.70;13.00;;;16.90;99.90;;;;;;5071363;28;20430;-73
2022/09/25 12:52:14;;;;;;;12.90;11.47;;;16.90;99.90;;;;;;5055754;28;20450;-73
2022/09/25 12:54:46;;;;;;;16.57;11.23;;;16.90;99.90;;;;;;5071404;28;20918;-74
2022/09/25 12:57:25;;;;;;;13.20;11.80;;;17.00;99.90;;;;;;5071156;28;20473;-73
2022/09/25 13:00:20;;;;;;;12.00;10.70;;;17.10;99.90;;;;;;5071852;28;20452;-73
2022/09/25 13:02:54;;;;;;;12.57;11.00;;;17.20;99.90;;;;;;5071192;28;20434;-74
2022/09/25 13:05:44;;;;;;;12.53;11.03;;;17.30;99.90;;;;;;5071113;28;20936;-73
2022/09/25 13:08:20;;;;;;;13.33;10.20;;;17.30;99.90;;;;;;5071149;28;20429;-74
2022/09/25 13:10:55;;;;;;;13.40;9.33;;;17.30;99.90;;;;;;5071005;28;20414;-74
2022/09/25 13:13:25;;;;;;;11.10;9.47;;;17.30;99.90;;;;;;5072540;28;20425;-74
2022/09/25 13:15:56;;;;;;;11.80;8.97;;;17.30;99.90;;;;;;5074947;28;20498;-74
2022/09/25 13:18:24;;;;;;;13.63;10.37;;;17.00;99.90;;;;;;5074436;28;20465;-73
2022/09/25 13:20:55;;;;;;;12.20;10.83;;;16.80;99.90;;;;;;5074486;28;20497;-74
2022/09/25 13:23:35;;;;;;;15.23;9.50;;;16.70;99.90;;;;;;5074337;28;20907;-73
2022/09/25 13:26:15;;;;;;;12.33;10.97;;;16.60;99.90;;;;;;5074691;28;20784;-73
2022/09/25 13:28:52;;;;;;;13.47;10.53;;;16.50;99.90;;;;;;5074847;28;20411;-74
2022/09/25 13:31:29;;;;;;;14.33;9.63;;;16.60;99.90;;;;;;5074050;28;20473;-73
2022/09/25 13:34:04;;;;;;;14.50;10.53;;;16.60;99.90;;;;;;5074368;28;20423;-74
2022/09/25 13:36:37;;;;;;;10.90;9.60;;;16.60;99.90;;;;;;5074060;28;20452;-74
2022/09/25 13:42:28;;;;;;;12.10;10.73;;;16.70;99.90;;;;;;5074321;28;20434;-73
2022/09/25 13:45:16;;;;;;;13.77;11.10;;;16.50;99.90;;;;;;5074242;28;20422;-74
2022/09/25 13:48:07;;;;;;;17.87;10.93;;;16.40;99.90;;;;;;5074133;28;20417;-74
2022/09/25 13:50:41;;;;;;;11.43;10.07;;;16.30;99.90;;;;;;5073806;28;20970;-73
2022/09/25 13:53:17;;;;;;;16.50;9.97;;;16.30;99.90;;;;;;5073947;28;20433;-74
2022/09/25 13:56:04;;;;;;;11.47;10.07;;;16.30;99.90;;;;;;5074129;28;20414;-74
2022/09/25 13:58:50;;;;;;;12.83;8.83;;;16.20;99.90;;;;;;5073824;28;20462;-74
2022/09/25 14:01:35;;;;;;;11.30;10.20;;;16.20;99.90;;;;;;5073377;28;20441;-74
2022/09/25 14:04:17;;;;;;;10.90;8.30;;;16.30;99.90;;;;;;5073710;28;20399;-74
2022/09/25 14:06:56;;;;;;;10.10;8.30;;;16.30;99.90;;;;;;5073782;28;20419;-74
2022/09/25 14:09:24;;;;;;;9.40;8.30;;;16.40;99.90;;;;;;5073535;28;20492;-74
2022/09/25 14:11:58;;;;;;;12.77;8.60;;;16.40;99.90;;;;;;5073510;28;20527;-73
2022/09/25 14:14:54;;;;;;;14.83;8.23;;;16.50;99.90;;;;;;5073354;28;20419;-73
2022/09/25 14:17:23;;;;;;;12.00;7.90;;;16.50;99.90;;;;;;5072484;28;20466;-74
2022/09/25 14:19:52;;;;;;;10.80;8.57;;;16.60;99.90;;;;;;5073411;28;20427;-73
2022/09/25 14:22:26;;;;;;;11.77;8.53;;;16.60;99.90;;;;;;5073154;28;20812;-74
2022/09/25 14:24:52;;;;;;;9.03;7.80;;;16.60;99.90;;;;;;5072578;28;20418;-73
2022/09/25 14:27:22;;;;;;;10.67;7.77;;;16.70;99.90;;;;;;5073659;28;20414;-73
2022/09/25 14:29:48;;;;;;;8.60;7.73;;;16.70;99.90;;;;;;5073600;28;20180;-73
2022/09/25 14:32:39;;;;;;;9.40;8.43;;;16.60;99.90;;;;;;5072592;28;20462;-73
2022/09/25 14:35:30;;;;;;;8.87;7.60;;;16.60;99.90;;;;;;5073366;28;20180;-74
2022/09/25 14:38:21;;;;;;;8.73;7.07;;;16.50;99.90;;;;;;5073119;28;20577;-73
2022/09/25 14:41:17;;;;;;;6.47;5.83;;;16.40;99.90;;;;;;5072885;28;20480;-73
2022/09/25 14:44:02;;;;;;;7.67;6.53;;;16.50;99.90;;;;;;5073039;28;20414;-74
2022/09/25 14:46:28;;;;;;;10.37;7.80;;;16.40;99.90;;;;;;5072699;28;20429;-74